createdAt,value
2023-05-10T00:00:14.175Z,10.83
2023-05-10T00:02:41.662Z,10.80
2023-05-10T00:05:08.692Z,10.83
2023-05-10T00:07:35.225Z,10.87
2023-05-10T00:10:01.743Z,10.89
2023-05-10T00:12:28.262Z,10.84
2023-05-10T00:14:54.795Z,10.79
2023-05-10T00:17:21.450Z,10.74
2023-05-10T00:19:47.996Z,10.72
2023-05-10T00:22:14.495Z,10.75
2023-05-10T00:24:41.026Z,10.75
2023-05-10T00:27:07.505Z,10.75
2023-05-10T00:29:34.854Z,10.76
2023-05-10T00:32:01.507Z,10.76
2023-05-10T00:34:28.210Z,10.76
2023-05-10T00:36:54.857Z,10.73
2023-05-10T00:39:21.481Z,10.74
2023-05-10T00:41:48.087Z,10.77
2023-05-10T00:44:14.717Z,10.79
2023-05-10T00:46:41.583Z,10.83
2023-05-10T00:49:08.262Z,10.89
2023-05-10T00:51:34.937Z,10.92
2023-05-10T00:54:01.470Z,10.96
2023-05-10T00:56:29.466Z,10.99
2023-05-10T00:58:56.758Z,10.99
2023-05-10T01:01:23.419Z,11.08
2023-05-10T01:03:50.007Z,11.13
2023-05-10T01:06:16.538Z,11.17
2023-05-10T01:08:43.215Z,11.22
2023-05-10T01:11:09.927Z,11.23
2023-05-10T01:13:38.447Z,11.25
2023-05-10T01:16:05.876Z,11.26
2023-05-10T01:18:34.477Z,11.25
2023-05-10T01:21:14.546Z,11.30
2023-05-10T01:24:10.660Z,11.28
2023-05-10T01:27:11.428Z,11.33
2023-05-10T01:30:14.147Z,11.37
2023-05-10T01:32:52.139Z,11.37
2023-05-10T01:36:04.967Z,11.37
2023-05-10T01:38:57.688Z,11.41
2023-05-10T01:41:56.322Z,11.39
2023-05-10T01:44:30.977Z,11.39
2023-05-10T01:47:21.039Z,11.33
2023-05-10T01:49:52.333Z,11.34
2023-05-10T01:52:27.335Z,11.29
2023-05-10T01:55:02.153Z,11.31
2023-05-10T01:57:29.025Z,11.28
2023-05-10T01:59:56.023Z,11.30
2023-05-10T02:02:23.901Z,11.31
2023-05-10T02:04:51.678Z,11.31
2023-05-10T02:07:18.744Z,11.32
2023-05-10T02:09:48.993Z,11.33
2023-05-10T02:12:16.619Z,11.30
2023-05-10T02:14:44.095Z,11.29
2023-05-10T02:17:10.982Z,11.33
2023-05-10T02:19:39.580Z,11.31
2023-05-10T02:22:06.298Z,11.31
2023-05-10T02:24:33.742Z,11.27
2023-05-10T02:27:00.901Z,11.30
2023-05-10T02:29:28.282Z,11.29
2023-05-10T02:31:56.205Z,11.31
2023-05-10T02:34:24.324Z,11.34
2023-05-10T02:36:52.262Z,11.31
2023-05-10T02:39:20.130Z,11.33
2023-05-10T02:41:47.904Z,11.32
2023-05-10T02:44:16.640Z,11.31
2023-05-10T02:46:43.144Z,11.32
2023-05-10T02:49:09.688Z,11.34
2023-05-10T02:51:38.758Z,11.34
2023-05-10T02:54:11.674Z,11.37
2023-05-10T02:56:44.042Z,11.36
2023-05-10T02:59:10.555Z,11.35
2023-05-10T03:01:37.085Z,11.35
2023-05-10T03:04:03.741Z,11.37
2023-05-10T03:06:30.378Z,11.36
2023-05-10T03:08:57.475Z,11.36
2023-05-10T03:11:46.383Z,11.35
2023-05-10T03:14:27.994Z,11.33
2023-05-10T03:16:59.972Z,11.30
2023-05-10T03:19:34.189Z,11.31
2023-05-10T03:22:05.952Z,11.30
2023-05-10T03:24:34.167Z,11.28
2023-05-10T03:27:03.773Z,11.32
2023-05-10T03:29:31.773Z,11.26
2023-05-10T03:32:01.562Z,11.24
2023-05-10T03:34:30.981Z,11.22
2023-05-10T03:36:57.471Z,11.23
2023-05-10T03:39:23.988Z,11.26
2023-05-10T03:41:50.457Z,11.25
2023-05-10T03:44:17.397Z,11.21
2023-05-10T03:46:44.016Z,11.24
2023-05-10T03:49:10.571Z,11.19
2023-05-10T03:51:37.261Z,11.21
2023-05-10T03:54:03.930Z,11.19
2023-05-10T03:56:31.048Z,11.20
2023-05-10T03:58:57.566Z,11.18
2023-05-10T04:01:24.062Z,11.22
2023-05-10T04:03:50.807Z,11.21
2023-05-10T04:06:17.576Z,11.18
2023-05-10T04:08:44.111Z,11.19
2023-05-10T04:11:13.229Z,11.18
2023-05-10T04:13:39.744Z,11.17
2023-05-10T04:16:06.539Z,11.22
2023-05-10T04:18:33.113Z,11.19
2023-05-10T04:20:59.630Z,11.17
2023-05-10T04:23:26.160Z,11.11
2023-05-10T04:25:52.736Z,11.00
2023-05-10T04:28:19.317Z,10.94
2023-05-10T04:30:46.696Z,10.91
2023-05-10T04:33:13.251Z,10.84
2023-05-10T04:35:41.030Z,10.88
2023-05-10T04:38:07.821Z,10.84
2023-05-10T04:40:35.220Z,10.86
2023-05-10T04:43:01.755Z,10.86
2023-05-10T04:45:28.256Z,10.88
2023-05-10T04:47:54.854Z,10.82
2023-05-10T04:50:21.403Z,10.86
2023-05-10T04:52:47.916Z,10.84
2023-05-10T04:55:14.702Z,10.79
2023-05-10T04:57:41.281Z,10.79
2023-05-10T05:00:08.446Z,10.81
2023-05-10T05:02:35.161Z,10.82
2023-05-10T05:05:01.892Z,10.81
2023-05-10T05:07:28.447Z,10.84
2023-05-10T05:09:54.973Z,10.88
2023-05-10T05:12:21.508Z,10.90
2023-05-10T05:14:48.004Z,10.94
2023-05-10T05:17:14.541Z,10.95
2023-05-10T05:19:41.073Z,10.96
2023-05-10T05:22:08.812Z,11.01
2023-05-10T05:24:39.148Z,11.04
2023-05-10T05:27:06.889Z,11.06
2023-05-10T05:29:33.426Z,11.10
2023-05-10T05:32:00.278Z,11.12
2023-05-10T05:34:26.993Z,11.07
2023-05-10T05:36:53.514Z,11.09
2023-05-10T05:39:20.021Z,11.12
2023-05-10T05:41:47.623Z,11.14
2023-05-10T05:44:14.132Z,11.18
2023-05-10T05:46:40.731Z,11.17
2023-05-10T05:49:07.492Z,11.28
2023-05-10T05:51:34.034Z,11.42
2023-05-10T05:54:00.585Z,11.40
2023-05-10T05:56:27.152Z,11.52
2023-05-10T05:58:53.890Z,11.62
2023-05-10T06:01:20.583Z,11.66
2023-05-10T06:03:47.171Z,11.71
2023-05-10T06:06:14.373Z,11.88
2023-05-10T06:08:40.896Z,11.89
2023-05-10T06:11:07.382Z,11.96
2023-05-10T06:13:36.159Z,11.98
2023-05-10T06:16:03.846Z,12.00
2023-05-10T06:18:30.392Z,12.09
2023-05-10T06:20:57.023Z,12.16
2023-05-10T06:23:23.821Z,12.13
2023-05-10T06:25:50.586Z,12.18
2023-05-10T06:28:17.178Z,12.16
2023-05-10T06:30:43.727Z,12.15
2023-05-10T06:33:10.353Z,12.21
2023-05-10T06:35:37.830Z,12.39
2023-05-10T06:38:04.401Z,12.58
2023-05-10T06:40:30.945Z,12.54
2023-05-10T06:42:57.484Z,12.71
2023-05-10T06:45:24.141Z,12.83
2023-05-10T06:47:50.704Z,12.83
2023-05-10T06:50:17.294Z,12.81
2023-05-10T06:52:44.183Z,12.67
2023-05-10T06:55:10.990Z,12.73
2023-05-10T06:57:37.632Z,12.77
2023-05-10T07:00:05.738Z,12.83
2023-05-10T07:02:32.375Z,12.86
2023-05-10T07:05:01.679Z,12.86
2023-05-10T07:07:29.855Z,12.97
2023-05-10T07:09:57.534Z,13.10
2023-05-10T07:12:24.801Z,13.19
2023-05-10T07:14:51.360Z,13.38
2023-05-10T07:17:17.924Z,13.44
2023-05-10T07:19:44.695Z,13.51
2023-05-10T07:22:11.266Z,13.60
2023-05-10T07:24:37.813Z,13.83
2023-05-10T07:27:05.216Z,13.81
2023-05-10T07:29:31.746Z,13.65
2023-05-10T07:31:59.039Z,13.61
2023-05-10T07:34:26.263Z,13.55
2023-05-10T07:36:53.194Z,13.62
2023-05-10T07:39:27.278Z,13.41
2023-05-10T07:41:55.501Z,13.50
2023-05-10T07:44:22.049Z,13.58
2023-05-10T07:46:49.096Z,13.61
2023-05-10T07:49:15.777Z,13.61
2023-05-10T07:51:43.323Z,13.58
2023-05-10T07:54:09.903Z,13.54
2023-05-10T07:56:36.448Z,13.43
2023-05-10T07:59:08.443Z,13.51
2023-05-10T08:01:36.243Z,13.55
2023-05-10T08:04:03.259Z,13.50
2023-05-10T08:06:30.880Z,13.36
2023-05-10T08:08:57.636Z,13.54
2023-05-10T08:11:24.325Z,13.55
2023-05-10T08:13:51.834Z,13.49
2023-05-10T08:16:18.466Z,13.61
2023-05-10T08:18:46.431Z,13.74
2023-05-10T08:21:13.433Z,13.77
2023-05-10T08:23:39.918Z,13.93
2023-05-10T08:26:06.699Z,13.92
2023-05-10T08:28:33.295Z,13.85
2023-05-10T08:31:00.053Z,13.96
2023-05-10T08:33:26.934Z,14.13
2023-05-10T08:35:53.481Z,13.94
2023-05-10T08:38:19.975Z,13.91
2023-05-10T08:40:46.715Z,13.90
2023-05-10T08:43:16.172Z,13.94
2023-05-10T08:45:46.292Z,13.91
2023-05-10T08:48:12.906Z,13.93
2023-05-10T08:50:42.990Z,14.04
2023-05-10T08:53:14.128Z,14.29
2023-05-10T08:55:43.041Z,14.42
2023-05-10T08:58:10.371Z,14.47
2023-05-10T09:00:38.222Z,14.57
2023-05-10T09:03:05.861Z,14.27
2023-05-10T09:05:32.888Z,14.21
2023-05-10T09:08:02.305Z,13.99
2023-05-10T09:10:29.207Z,13.87
2023-05-10T09:12:59.382Z,13.78
2023-05-10T09:15:26.237Z,13.71
2023-05-10T09:17:52.859Z,13.67
2023-05-10T09:20:21.372Z,13.64
2023-05-10T09:22:48.354Z,13.66
2023-05-10T09:25:16.613Z,13.56
2023-05-10T09:27:48.183Z,13.50
2023-05-10T09:30:19.102Z,13.39
2023-05-10T09:37:25.432Z,13.38
2023-05-10T09:39:55.584Z,13.32
2023-05-10T09:42:22.125Z,13.32
2023-05-10T09:44:48.955Z,13.22
2023-05-10T09:47:19.970Z,13.23
2023-05-10T09:49:54.070Z,13.17
2023-05-10T09:52:20.833Z,13.14
2023-05-10T09:54:54.298Z,13.07
2023-05-10T09:57:25.943Z,13.10
2023-05-10T09:59:54.530Z,13.03
2023-05-10T10:02:21.035Z,13.09
2023-05-10T10:04:50.280Z,13.12
2023-05-10T10:07:23.702Z,13.09
2023-05-10T10:09:50.789Z,13.09
2023-05-10T10:12:17.542Z,13.25
2023-05-10T10:14:44.275Z,13.36
2023-05-10T10:17:10.769Z,13.38
2023-05-10T10:19:38.043Z,13.52
2023-05-10T10:22:05.294Z,13.58
2023-05-10T10:24:32.170Z,13.56
2023-05-10T10:27:23.722Z,13.60
2023-05-10T10:29:53.331Z,13.64
2023-05-10T10:32:31.392Z,13.72
2023-05-10T10:34:58.043Z,13.97
2023-05-10T10:37:25.142Z,14.44
2023-05-10T10:39:51.780Z,14.76
2023-05-10T10:42:44.886Z,15.08
2023-05-10T10:45:14.704Z,16.03
2023-05-10T10:47:41.562Z,16.69
2023-05-10T10:50:09.161Z,17.07
2023-05-10T10:52:37.375Z,17.53
2023-05-10T10:55:14.188Z,18.11
2023-05-10T10:58:02.080Z,18.02
2023-05-10T11:00:29.172Z,18.42
2023-05-10T11:03:10.146Z,18.15
2023-05-10T11:05:47.266Z,18.57
2023-05-10T11:08:37.449Z,18.50
2023-05-10T11:11:09.133Z,18.37
2023-05-10T11:13:42.827Z,18.20
2023-05-10T11:16:15.792Z,17.69
2023-05-10T11:18:54.067Z,17.44
2023-05-10T11:21:20.755Z,17.63
2023-05-10T11:23:52.427Z,16.99
2023-05-10T11:26:19.685Z,16.80
2023-05-10T11:28:47.723Z,16.88
2023-05-10T11:31:18.257Z,17.00
2023-05-10T11:33:49.519Z,16.27
2023-05-10T11:36:17.836Z,16.18
2023-05-10T11:38:44.845Z,16.24
2023-05-10T11:41:12.582Z,16.44
2023-05-10T11:43:42.800Z,15.98
2023-05-10T11:46:12.276Z,15.71
2023-05-10T11:48:42.747Z,15.50
2023-05-10T11:51:09.844Z,15.44
2023-05-10T11:53:36.598Z,15.32
2023-05-10T11:56:10.303Z,15.43
2023-05-10T11:58:38.692Z,15.25
2023-05-10T12:01:06.854Z,14.94
2023-05-10T12:03:33.896Z,14.92
2023-05-10T12:06:02.036Z,14.96
2023-05-10T12:08:30.085Z,15.12
2023-05-10T12:11:08.886Z,15.16
2023-05-10T12:13:41.311Z,15.55
2023-05-10T12:16:34.381Z,15.92
2023-05-10T12:19:01.940Z,16.16
2023-05-10T12:21:30.151Z,16.16
2023-05-10T12:24:01.233Z,16.38
2023-05-10T12:26:29.176Z,16.65
2023-05-10T12:28:55.995Z,16.95
2023-05-10T12:31:22.556Z,17.18
2023-05-10T12:33:50.304Z,17.32
2023-05-10T12:36:17.657Z,17.29
2023-05-10T12:38:48.543Z,17.18
2023-05-10T12:41:16.984Z,17.17
2023-05-10T12:43:43.794Z,16.86
2023-05-10T12:46:12.790Z,17.06
2023-05-10T12:48:41.168Z,17.53
2023-05-10T12:51:12.890Z,17.77
2023-05-10T12:53:45.077Z,18.02
2023-05-10T12:56:12.227Z,17.92
2023-05-10T12:58:39.460Z,17.81
2023-05-10T13:01:06.641Z,18.01
2023-05-10T13:03:33.387Z,17.89
2023-05-10T13:05:59.950Z,17.87
2023-05-10T13:08:26.548Z,17.88
2023-05-10T13:10:53.096Z,17.41
2023-05-10T13:13:19.629Z,17.39
2023-05-10T13:15:46.168Z,17.21
2023-05-10T13:18:12.794Z,16.96
2023-05-10T13:20:39.486Z,17.03
2023-05-10T13:23:06.050Z,16.81
2023-05-10T13:25:32.641Z,16.17
2023-05-10T13:27:59.124Z,16.23
2023-05-10T13:30:25.645Z,16.10
2023-05-10T13:32:52.252Z,15.97
2023-05-10T13:35:18.865Z,16.30
2023-05-10T13:37:45.491Z,16.23
2023-05-10T13:40:12.400Z,16.20
2023-05-10T13:42:39.049Z,16.25
2023-05-10T13:45:06.235Z,16.28
2023-05-10T13:47:33.095Z,16.38
2023-05-10T13:49:59.656Z,16.14
2023-05-10T13:52:27.304Z,16.34
2023-05-10T13:54:55.935Z,16.40
2023-05-10T13:57:22.942Z,16.47
2023-05-10T13:59:49.619Z,16.48
2023-05-10T14:02:16.120Z,16.21
2023-05-10T14:04:42.647Z,16.12
2023-05-10T14:07:09.246Z,15.90
2023-05-10T14:09:35.763Z,15.70
2023-05-10T14:12:03.128Z,15.67
2023-05-10T14:14:30.444Z,15.60
2023-05-10T14:16:56.973Z,15.58
2023-05-10T14:19:23.498Z,15.61
2023-05-10T14:21:50.022Z,15.73
2023-05-10T14:24:16.538Z,15.95
2023-05-10T14:26:43.032Z,16.09
2023-05-10T14:29:11.556Z,16.49
2023-05-10T14:31:39.070Z,16.62
2023-05-10T14:34:06.732Z,16.92
2023-05-10T14:36:33.373Z,17.02
2023-05-10T14:38:59.965Z,16.91
2023-05-10T14:41:26.478Z,17.29
2023-05-10T14:43:53.725Z,17.81
2023-05-10T14:46:20.761Z,17.97
2023-05-10T14:48:47.496Z,17.85
2023-05-10T14:51:14.578Z,17.69
2023-05-10T14:53:41.168Z,18.01
2023-05-10T14:56:08.203Z,17.81
2023-05-10T14:58:34.762Z,17.33
2023-05-10T15:01:01.781Z,16.86
2023-05-10T15:03:28.920Z,16.87
2023-05-10T15:05:57.132Z,16.95
2023-05-10T15:08:25.455Z,17.19
2023-05-10T15:10:52.404Z,17.29
2023-05-10T15:13:18.895Z,17.46
2023-05-10T15:15:45.443Z,18.03
2023-05-10T15:18:12.318Z,18.33
2023-05-10T15:20:38.964Z,18.00
2023-05-10T15:23:05.528Z,17.58
2023-05-10T15:25:32.179Z,17.44
2023-05-10T15:27:58.689Z,17.17
2023-05-10T15:30:25.268Z,17.14
2023-05-10T15:32:51.983Z,16.66
2023-05-10T15:35:18.744Z,16.86
2023-05-10T15:37:45.671Z,16.65
2023-05-10T15:40:12.651Z,16.63
2023-05-10T15:42:39.358Z,16.85
2023-05-10T15:45:07.048Z,16.72
2023-05-10T15:47:34.191Z,16.44
2023-05-10T15:50:01.127Z,16.22
2023-05-10T15:52:28.221Z,16.14
2023-05-10T15:54:54.837Z,15.99
2023-05-10T15:57:21.327Z,15.79
2023-05-10T15:59:47.871Z,15.78
2023-05-10T16:02:14.485Z,15.82
2023-05-10T16:04:41.060Z,15.82
2023-05-10T16:07:07.620Z,15.96
2023-05-10T16:09:41.346Z,15.93
2023-05-10T16:12:08.450Z,16.01
2023-05-10T16:14:35.005Z,15.99
2023-05-10T16:17:05.245Z,15.93
2023-05-10T16:19:32.053Z,15.87
2023-05-10T16:21:58.671Z,15.87
2023-05-10T16:24:25.955Z,15.87
2023-05-10T16:26:52.529Z,15.97
2023-05-10T16:29:19.055Z,15.67
2023-05-10T16:31:46.323Z,15.30
2023-05-10T16:34:12.891Z,15.13
2023-05-10T16:36:39.409Z,15.07
2023-05-10T16:39:05.938Z,15.25
2023-05-10T16:41:35.789Z,15.16
2023-05-10T16:44:03.874Z,15.25
2023-05-10T16:46:30.478Z,15.16
2023-05-10T16:48:57.106Z,15.03
2023-05-10T16:51:23.616Z,14.87
2023-05-10T16:53:50.090Z,14.90
2023-05-10T16:56:18.407Z,14.74
2023-05-10T16:58:44.925Z,14.74
2023-05-10T17:01:11.545Z,14.76
2023-05-10T17:03:38.242Z,14.74
2023-05-10T17:06:06.018Z,14.77
2023-05-10T17:08:33.024Z,14.65
2023-05-10T17:11:03.929Z,14.65
2023-05-10T17:13:31.115Z,14.69
2023-05-10T17:15:57.899Z,14.62
2023-05-10T17:18:24.786Z,14.56
2023-05-10T17:20:51.489Z,14.43
2023-05-10T17:23:18.022Z,14.50
2023-05-10T17:25:44.643Z,14.45
2023-05-10T17:28:11.183Z,14.39
2023-05-10T17:30:37.897Z,14.35
2023-05-10T17:33:05.224Z,14.30
2023-05-10T17:35:32.077Z,14.26
2023-05-10T17:37:58.631Z,14.22
2023-05-10T17:40:25.135Z,14.29
2023-05-10T17:42:52.095Z,14.29
2023-05-10T17:45:18.999Z,14.31
2023-05-10T17:47:46.320Z,14.21
2023-05-10T17:50:12.918Z,14.26
2023-05-10T17:52:39.511Z,14.32
2023-05-10T17:55:06.616Z,14.34
2023-05-10T17:57:33.386Z,14.35
2023-05-10T18:00:00.051Z,14.35
2023-05-10T18:02:26.896Z,14.30
2023-05-10T18:04:53.599Z,14.21
2023-05-10T18:07:22.847Z,14.11
2023-05-10T18:09:49.636Z,14.17
2023-05-10T18:12:16.497Z,14.18
2023-05-10T18:14:43.018Z,14.14
2023-05-10T18:17:09.878Z,14.16
2023-05-10T18:19:36.659Z,14.05
2023-05-10T18:22:03.254Z,14.14
2023-05-10T18:24:39.164Z,14.09
2023-05-10T18:27:09.836Z,14.02
2023-05-10T18:29:37.029Z,13.95
2023-05-10T18:32:03.787Z,13.98
2023-05-10T18:34:30.366Z,14.03
2023-05-10T18:36:57.028Z,14.10
2023-05-10T18:39:24.355Z,14.17
2023-05-10T18:41:51.118Z,14.01
2023-05-10T18:44:18.936Z,13.94
2023-05-10T18:46:45.654Z,13.82
2023-05-10T18:49:12.177Z,13.82
2023-05-10T18:51:38.679Z,13.74
2023-05-10T18:54:05.220Z,13.57
2023-05-10T18:56:31.763Z,13.50
2023-05-10T18:58:58.392Z,13.49
2023-05-10T19:01:25.005Z,13.44
2023-05-10T19:03:51.736Z,13.36
2023-05-10T19:06:18.302Z,13.38
2023-05-10T19:08:44.863Z,13.38
2023-05-10T19:11:11.401Z,13.31
2023-05-10T19:13:38.223Z,13.32
2023-05-10T19:16:14.994Z,13.26
2023-05-10T19:18:44.811Z,13.13
2023-05-10T19:21:11.462Z,13.08
2023-05-10T19:23:40.428Z,13.07
2023-05-10T19:26:08.034Z,13.04
2023-05-10T19:28:35.952Z,13.08
2023-05-10T19:31:02.568Z,13.00
2023-05-10T19:33:29.641Z,12.99
2023-05-10T19:35:56.369Z,12.96
2023-05-10T19:38:24.188Z,12.91
2023-05-10T19:40:57.427Z,12.91
2023-05-10T19:43:28.811Z,12.88
2023-05-10T19:45:58.345Z,12.90
2023-05-10T19:48:25.357Z,12.91
2023-05-10T19:50:52.881Z,12.92
2023-05-10T19:53:19.506Z,12.87
2023-05-10T19:55:46.233Z,12.81
2023-05-10T19:58:12.761Z,12.79
2023-05-10T20:00:39.293Z,12.79
2023-05-10T20:03:08.420Z,12.76
2023-05-10T20:05:35.837Z,12.73
2023-05-10T20:08:02.499Z,12.70
2023-05-10T20:10:29.057Z,12.70
2023-05-10T20:12:55.591Z,12.68
2023-05-10T20:15:23.277Z,12.63
2023-05-10T20:17:51.217Z,12.64
2023-05-10T20:20:18.236Z,12.58
2023-05-10T20:22:45.276Z,12.55
2023-05-10T20:25:12.353Z,12.58
2023-05-10T20:27:38.920Z,12.48
2023-05-10T20:30:06.246Z,12.45
2023-05-10T20:32:33.987Z,12.46
2023-05-10T20:35:00.534Z,12.46
2023-05-10T20:37:28.058Z,12.41
2023-05-10T20:39:55.530Z,12.48
2023-05-10T20:42:22.403Z,12.43
2023-05-10T20:44:49.637Z,12.38
2023-05-10T20:47:16.703Z,12.34
2023-05-10T20:49:43.815Z,12.34
2023-05-10T20:52:10.341Z,12.36
2023-05-10T20:54:36.850Z,12.38
2023-05-10T20:57:03.463Z,12.41
2023-05-10T20:59:30.121Z,12.44
2023-05-10T21:01:57.456Z,12.44
2023-05-10T21:04:25.692Z,12.46
2023-05-10T21:06:53.051Z,12.43
2023-05-10T21:09:19.719Z,12.40
2023-05-10T21:11:46.285Z,12.40
2023-05-10T21:14:12.838Z,12.36
2023-05-10T21:16:39.418Z,12.34
2023-05-10T21:19:07.452Z,12.35
2023-05-10T21:21:34.367Z,12.33
2023-05-10T21:24:01.194Z,12.30
2023-05-10T21:26:27.820Z,12.27
2023-05-10T21:28:54.437Z,12.29
2023-05-10T21:31:21.397Z,12.22
2023-05-10T21:33:47.962Z,12.19
2023-05-10T21:36:14.598Z,12.18
2023-05-10T21:38:42.312Z,12.18
2023-05-10T21:41:08.840Z,12.13
2023-05-10T21:43:35.504Z,12.09
2023-05-10T21:46:02.143Z,12.08
2023-05-10T21:48:28.751Z,12.07
2023-05-10T21:50:55.338Z,12.04
2023-05-10T21:53:22.411Z,12.03
2023-05-10T21:55:49.038Z,11.99
2023-05-10T21:58:15.883Z,11.99
2023-05-10T22:00:42.397Z,12.00
2023-05-10T22:03:09.030Z,12.02
2023-05-10T22:05:35.673Z,12.04
2023-05-10T22:08:02.179Z,12.03
2023-05-10T22:10:28.753Z,12.03
2023-05-10T22:12:55.324Z,12.05
2023-05-10T22:15:22.106Z,12.06
2023-05-10T22:17:48.948Z,12.04
2023-05-10T22:20:15.788Z,12.04
2023-05-10T22:22:42.584Z,12.05
2023-05-10T22:25:09.310Z,12.05
2023-05-10T22:27:36.336Z,12.03
2023-05-10T22:30:03.926Z,12.02
2023-05-10T22:32:31.615Z,12.04
2023-05-10T22:34:58.318Z,12.05
2023-05-10T22:37:24.856Z,12.06
2023-05-10T22:39:51.448Z,12.08
2023-05-10T22:42:17.995Z,12.07
2023-05-10T22:44:44.588Z,12.04
2023-05-10T22:47:11.210Z,12.00
2023-05-10T22:49:37.910Z,12.01
2023-05-10T22:52:04.623Z,12.02
2023-05-10T22:54:31.147Z,12.02
2023-05-10T22:56:57.722Z,12.03
2023-05-10T22:59:24.262Z,12.01
2023-05-10T23:01:51.067Z,11.98
2023-05-10T23:04:18.266Z,11.98
2023-05-10T23:06:45.859Z,12.00
2023-05-10T23:09:12.388Z,12.03
2023-05-10T23:11:38.921Z,12.03
2023-05-10T23:14:05.430Z,12.04
2023-05-10T23:16:32.021Z,12.03
2023-05-10T23:18:58.790Z,12.02
2023-05-10T23:21:25.396Z,12.04
2023-05-10T23:23:52.439Z,12.01
2023-05-10T23:26:19.249Z,12.02
2023-05-10T23:28:45.862Z,12.03
2023-05-10T23:31:12.350Z,12.04
2023-05-10T23:33:38.932Z,12.03
2023-05-10T23:36:05.737Z,12.01
2023-05-10T23:38:32.618Z,12.02
2023-05-10T23:40:59.141Z,11.98
2023-05-10T23:43:25.921Z,11.95
2023-05-10T23:45:54.018Z,11.87
2023-05-10T23:48:20.914Z,11.83
2023-05-10T23:50:47.882Z,11.80
2023-05-10T23:53:14.438Z,11.84
2023-05-10T23:55:40.966Z,11.83
2023-05-10T23:58:07.757Z,11.85
